This is the latest recevied weather packets stored in our database for station/object KF0FSA. If no packets are shown the sender has not sent any weather packets the latest 10 day(s).
| Time | Temp. | Humidity | Pressure | Rain* | Wind** | Luminosity | Snow |
|---|---|---|---|---|---|---|---|
| 1777991020 | 7.22° C | 52% | 958.8 hPa | 0 mm | - | 488 W/m² | - |
| 1777990720 | 7.22° C | 53% | 958.9 hPa | 0 mm | - | 404 W/m² | - |
| 1777990420 | 6.67° C | 54% | 958.8 hPa | 0 mm | - | 381 W/m² | - |
| 1777989821 | 6.11° C | 56% | 958.8 hPa | 0 mm | - | 376 W/m² | - |
| 1777989518 | 6.11° C | 56% | 958.8 hPa | 0 mm | - | 331 W/m² | - |
| 1777989218 | 5.56° C | 58% | 958.9 hPa | 0 mm | - | 294 W/m² | - |
| 1777988919 | 5.56° C | 58% | 958.9 hPa | 0 mm | - | 207 W/m² | - |
| 1777988617 | 5.56° C | 59% | 958.8 hPa | 0 mm | - | 350 W/m² | - |
| 1777988319 | 5.56° C | 60% | 958.8 hPa | 0 mm | - | 213 W/m² | - |
| 1777988138 | 5° C | 60% | 958.8 hPa | 0 mm | - | 183 W/m² | - |
| 1777987714 | 5° C | 62% | 958.7 hPa | 0 mm | - | 159 W/m² | - |
| 1777987416 | 5° C | 62% | 958.5 hPa | 0 mm | - | 184 W/m² | - |
| 1777987115 | 5° C | 61% | 958.5 hPa | 0 mm | - | 168 W/m² | - |
| 1777986939 | 5° C | 62% | 958.5 hPa | 0 mm | - | 153 W/m² | - |
| 1777986639 | 4.44° C | 62% | 958.3 hPa | 0 mm | - | 170 W/m² | - |
| 1777986216 | 4.44° C | 63% | 958.3 hPa | 0 mm | - | 144 W/m² | - |
| 1777985915 | 4.44° C | 64% | 958.3 hPa | 0 mm | - | 120 W/m² | - |
| 1777985616 | 4.44° C | 64% | 958.1 hPa | 0 mm | - | 145 W/m² | - |
| 1777985316 | 3.89° C | 65% | 958.2 hPa | 0 mm | - | 103 W/m² | - |
| 1777985016 | 3.89° C | 66% | 958.2 hPa | 0 mm | - | 90 W/m² | - |
| 1777984712 | 3.89° C | 66% | 958.1 hPa | 0 mm | - | 90 W/m² | - |
| 1777984410 | 3.89° C | 66% | 958.1 hPa | 0 mm | - | 90 W/m² | - |
| 1777984234 | 3.89° C | 65% | 957.9 hPa | 0 mm | - | 92 W/m² | - |
| 1777983810 | 3.89° C | 66% | 957.9 hPa | 0 mm | - | 96 W/m² | - |
| 1777983509 | 3.33° C | 66% | 957.7 hPa | 0 mm | - | 103 W/m² | - |
* Rain latest hour (hover to see other rain measurements)
** Current wind speed in m/s (hover to see current wind gust speed)